Rushville, IL

12:10 PM CDT on September 17, 2014 (GMT -0500)
Macomb Municipal | Change Station
CLOSE
Current Station
Airport
Location: Macomb,
Elevation: 709 ft
Nearby Weather Stations
Active Advisory: Flood Warning

Elev 709 ft 40.52 °N, 90.65 °W | Updated 15 minutes ago

Overcast
Overcast
62 °F
Feels Like 62 °F
N
9
Wind Variable Wind from South

Today
High -- | Low -- °F
--% Chance of Precip.
Yesterday
High -- | Low -- °F
Precip. -- in
6:45 AM 7:07 PM
Waning Crescent, 34% visible
Pressure 30.05 in
Visibility 10.0 miles
Clouds Overcast 7000 ft
Dew Point 54 °F
Humidity 75%
Rainfall 0.00 in
Snow Depth Not available.
UV 2 out of 12
Pollen 5.70 out of 12
Air Quality Not available.
Flu Activity Not available.
METAR KMQB 171655Z AUTO 17008KT 10SM OVC070 16/12 A3005 RMK AO2 T01640120

More Conditions Fewer Conditions

Pressure 30.05 in
Visibility 10.0 miles
Clouds Overcast 7000 ft
Dew Point 54 °F
Humidity 75%
Rainfall 0.00 in
Snow Depth Not available.
UV 2 out of 12
Pollen 5.70 out of 12
Air Quality Not available.
Flu Activity Not available.
METAR KMQB 171655Z AUTO 17008KT 10SM OVC070 16/12 A3005 RMK AO2 T01640120

More Conditions Fewer Conditions

Nowcast | as of 10:13 am CDT on September 17, 2014

Isolated showers will occur into early afternoon along and southwest of a Rushville to Springfield to Taylorville line.

×

10-Day Weather Forecast

Almanac

Astronomy

Sep. 17, 2014 Rise Set
Actual Time 6:45 AM CDT 7:07 PM CDT
Civil Twilight 6:17 AM CDT 7:34 PM CDT
Nautical Twilight 5:45 AM CDT 8:06 PM CDT
Astronomical Twilight 5:13 AM CDT 8:39 PM CDT
Moon 12:45 AM CDT 3:17 PM CDT
Length of Visible Light 13h 16m
Length of Day
12h 22m
Tomorrow will be 2m 38s shorter.
Waning Crescent, 34% of the Moon is Illuminated
Today
Waning Crescent
Sep 24
New
Oct 1
First Quarter
Oct 8
Full
Oct 15
Last Quarter

Today's Extremes

State Highs State Lows

Community

WunderPhotos

Upload Photos

1,754,107 photos uploaded!

Nearby

Snow Depth

Station Depth Elevation
No new snow has been reported.

Earthquake Activity

City Distance Mag. Time & Date
No recent earthquake activity has been reported nearby.
Minimum magnitude displayed is 2.5.

Coastal Water Temperatures

Place Temperature
No Stations Reporting

Nearby Weather Stations